sensor_id;sensor_type;location;lat;lon;timestamp;temperature;humidity
33139;DHT22;19501;50.948;5.316;2023-05-10T00:01:07;13.80;99.90
33139;DHT22;19501;50.948;5.316;2023-05-10T00:03:33;13.80;99.90
33139;DHT22;19501;50.948;5.316;2023-05-10T00:05:59;13.80;99.90
33139;DHT22;19501;50.948;5.316;2023-05-10T00:08:24;13.80;99.90
33139;DHT22;19501;50.948;5.316;2023-05-10T00:10:50;13.80;99.90
33139;DHT22;19501;50.948;5.316;2023-05-10T00:13:16;13.80;99.90
33139;DHT22;19501;50.948;5.316;2023-05-10T00:15:41;13.80;99.90
33139;DHT22;19501;50.948;5.316;2023-05-10T00:18:07;13.70;99.90
33139;DHT22;19501;50.948;5.316;2023-05-10T00:20:33;13.70;99.90
33139;DHT22;19501;50.948;5.316;2023-05-10T00:22:59;13.70;99.90
33139;DHT22;19501;50.948;5.316;2023-05-10T00:25:24;13.80;99.90
33139;DHT22;19501;50.948;5.316;2023-05-10T00:27:50;13.80;99.90
33139;DHT22;19501;50.948;5.316;2023-05-10T00:30:16;13.80;99.90
33139;DHT22;19501;50.948;5.316;2023-05-10T00:32:42;13.80;99.90
33139;DHT22;19501;50.948;5.316;2023-05-10T00:35:09;13.80;99.90
33139;DHT22;19501;50.948;5.316;2023-05-10T00:37:35;13.80;99.90
33139;DHT22;19501;50.948;5.316;2023-05-10T00:40:03;13.70;99.90
33139;DHT22;19501;50.948;5.316;2023-05-10T00:42:29;13.80;99.90
33139;DHT22;19501;50.948;5.316;2023-05-10T00:44:54;13.70;99.90
33139;DHT22;19501;50.948;5.316;2023-05-10T00:47:20;13.80;99.90
33139;DHT22;19501;50.948;5.316;2023-05-10T00:49:47;13.70;99.90
33139;DHT22;19501;50.948;5.316;2023-05-10T00:52:13;13.50;99.90
33139;DHT22;19501;50.948;5.316;2023-05-10T00:54:38;13.50;99.90
33139;DHT22;19501;50.948;5.316;2023-05-10T00:57:04;13.50;99.90
33139;DHT22;19501;50.948;5.316;2023-05-10T00:59:30;13.40;99.90
33139;DHT22;19501;50.948;5.316;2023-05-10T01:01:56;13.40;99.90
33139;DHT22;19501;50.948;5.316;2023-05-10T01:04:23;13.30;99.90
33139;DHT22;19501;50.948;5.316;2023-05-10T01:06:52;13.40;99.90
33139;DHT22;19501;50.948;5.316;2023-05-10T01:09:19;13.40;99.90
33139;DHT22;19501;50.948;5.316;2023-05-10T01:11:46;13.40;99.90
33139;DHT22;19501;50.948;5.316;2023-05-10T01:14:12;13.50;99.90
33139;DHT22;19501;50.948;5.316;2023-05-10T01:16:40;13.40;99.90
33139;DHT22;19501;50.948;5.316;2023-05-10T01:33:05;13.70;99.90
33139;DHT22;19501;50.948;5.316;2023-05-10T01:35:12;13.70;99.90
33139;DHT22;19501;50.948;5.316;2023-05-10T01:37:57;13.50;99.90
33139;DHT22;19501;50.948;5.316;2023-05-10T01:40:35;13.50;99.90
33139;DHT22;19501;50.948;5.316;2023-05-10T01:43:05;13.50;99.90
33139;DHT22;19501;50.948;5.316;2023-05-10T01:46:12;13.50;99.90
33139;DHT22;19501;50.948;5.316;2023-05-10T01:48:53;13.60;99.90
33139;DHT22;19501;50.948;5.316;2023-05-10T01:51:23;13.50;99.90
33139;DHT22;19501;50.948;5.316;2023-05-10T01:53:54;13.40;99.90
33139;DHT22;19501;50.948;5.316;2023-05-10T01:56:24;13.30;99.90
33139;DHT22;19501;50.948;5.316;2023-05-10T01:58:52;13.20;99.90
33139;DHT22;19501;50.948;5.316;2023-05-10T02:01:19;13.20;99.90
33139;DHT22;19501;50.948;5.316;2023-05-10T02:03:46;13.20;99.90
33139;DHT22;19501;50.948;5.316;2023-05-10T02:06:14;13.20;99.90
33139;DHT22;19501;50.948;5.316;2023-05-10T02:08:41;13.40;99.90
33139;DHT22;19501;50.948;5.316;2023-05-10T02:11:07;13.50;99.90
33139;DHT22;19501;50.948;5.316;2023-05-10T02:13:36;13.60;99.90
33139;DHT22;19501;50.948;5.316;2023-05-10T02:16:05;13.60;99.90
33139;DHT22;19501;50.948;5.316;2023-05-10T02:18:33;13.60;99.90
33139;DHT22;19501;50.948;5.316;2023-05-10T02:21:01;13.50;99.90
33139;DHT22;19501;50.948;5.316;2023-05-10T02:23:28;13.50;99.90
33139;DHT22;19501;50.948;5.316;2023-05-10T02:25:55;13.50;99.90
33139;DHT22;19501;50.948;5.316;2023-05-10T02:28:23;13.30;99.90
33139;DHT22;19501;50.948;5.316;2023-05-10T02:30:51;13.40;99.90
33139;DHT22;19501;50.948;5.316;2023-05-10T02:33:18;13.40;99.90
33139;DHT22;19501;50.948;5.316;2023-05-10T02:35:45;13.30;99.90
33139;DHT22;19501;50.948;5.316;2023-05-10T02:38:13;13.30;99.90
33139;DHT22;19501;50.948;5.316;2023-05-10T02:40:41;13.30;99.90
33139;DHT22;19501;50.948;5.316;2023-05-10T02:43:12;13.30;99.90
33139;DHT22;19501;50.948;5.316;2023-05-10T02:45:40;13.30;99.90
33139;DHT22;19501;50.948;5.316;2023-05-10T02:48:07;13.40;99.90
33139;DHT22;19501;50.948;5.316;2023-05-10T02:50:33;13.30;99.90
33139;DHT22;19501;50.948;5.316;2023-05-10T02:53:05;13.30;99.90
33139;DHT22;19501;50.948;5.316;2023-05-10T02:55:36;13.20;99.90
33139;DHT22;19501;50.948;5.316;2023-05-10T02:58:04;13.10;99.90
33139;DHT22;19501;50.948;5.316;2023-05-10T03:00:31;13.20;99.90
33139;DHT22;19501;50.948;5.316;2023-05-10T03:02:57;13.20;99.90
33139;DHT22;19501;50.948;5.316;2023-05-10T03:05:23;13.10;99.90
33139;DHT22;19501;50.948;5.316;2023-05-10T03:07:49;13.10;99.90
33139;DHT22;19501;50.948;5.316;2023-05-10T03:10:15;13.10;99.90
33139;DHT22;19501;50.948;5.316;2023-05-10T03:13:07;13.00;99.90
33139;DHT22;19501;50.948;5.316;2023-05-10T03:18:37;13.00;99.90
33139;DHT22;19501;50.948;5.316;2023-05-10T03:21:07;13.20;99.90
33139;DHT22;19501;50.948;5.316;2023-05-10T03:23:44;13.10;99.90
33139;DHT22;19501;50.948;5.316;2023-05-10T03:26:18;13.20;99.90
33139;DHT22;19501;50.948;5.316;2023-05-10T03:28:46;13.20;99.90
33139;DHT22;19501;50.948;5.316;2023-05-10T03:31:13;13.10;99.90
33139;DHT22;19501;50.948;5.316;2023-05-10T03:34:06;13.20;99.90
33139;DHT22;19501;50.948;5.316;2023-05-10T03:36:32;13.30;99.90
33139;DHT22;19501;50.948;5.316;2023-05-10T03:38:58;13.50;99.90
33139;DHT22;19501;50.948;5.316;2023-05-10T03:41:24;13.40;99.90
33139;DHT22;19501;50.948;5.316;2023-05-10T03:43:51;13.50;99.90
33139;DHT22;19501;50.948;5.316;2023-05-10T03:46:16;13.50;99.90
33139;DHT22;19501;50.948;5.316;2023-05-10T03:48:42;13.50;99.90
33139;DHT22;19501;50.948;5.316;2023-05-10T03:51:08;13.50;99.90
33139;DHT22;19501;50.948;5.316;2023-05-10T03:53:34;13.60;99.90
33139;DHT22;19501;50.948;5.316;2023-05-10T03:55:59;13.70;99.90
33139;DHT22;19501;50.948;5.316;2023-05-10T03:58:25;13.70;99.90
33139;DHT22;19501;50.948;5.316;2023-05-10T04:00:52;13.70;99.90
33139;DHT22;19501;50.948;5.316;2023-05-10T04:03:18;13.70;99.90
33139;DHT22;19501;50.948;5.316;2023-05-10T04:05:43;13.70;99.90
33139;DHT22;19501;50.948;5.316;2023-05-10T04:08:09;13.70;99.90
33139;DHT22;19501;50.948;5.316;2023-05-10T04:10:35;13.50;99.90
33139;DHT22;19501;50.948;5.316;2023-05-10T04:13:00;13.50;99.90
33139;DHT22;19501;50.948;5.316;2023-05-10T04:15:26;13.40;99.90
33139;DHT22;19501;50.948;5.316;2023-05-10T04:17:52;13.40;99.90
33139;DHT22;19501;50.948;5.316;2023-05-10T04:20:19;13.40;99.90
33139;DHT22;19501;50.948;5.316;2023-05-10T04:22:44;13.40;99.90
33139;DHT22;19501;50.948;5.316;2023-05-10T04:25:10;13.30;99.90
33139;DHT22;19501;50.948;5.316;2023-05-10T04:27:36;13.40;99.90
33139;DHT22;19501;50.948;5.316;2023-05-10T04:30:02;13.40;99.90
33139;DHT22;19501;50.948;5.316;2023-05-10T04:32:28;13.40;99.90
33139;DHT22;19501;50.948;5.316;2023-05-10T04:34:54;13.40;99.90
33139;DHT22;19501;50.948;5.316;2023-05-10T04:37:20;13.40;99.90
33139;DHT22;19501;50.948;5.316;2023-05-10T04:39:46;13.30;99.90
33139;DHT22;19501;50.948;5.316;2023-05-10T04:42:12;13.20;99.90
33139;DHT22;19501;50.948;5.316;2023-05-10T04:44:40;13.40;99.90
33139;DHT22;19501;50.948;5.316;2023-05-10T04:47:06;13.30;99.90
33139;DHT22;19501;50.948;5.316;2023-05-10T04:49:32;13.20;99.90
33139;DHT22;19501;50.948;5.316;2023-05-10T04:51:57;13.20;99.90
33139;DHT22;19501;50.948;5.316;2023-05-10T04:54:23;13.20;99.90
33139;DHT22;19501;50.948;5.316;2023-05-10T04:56:49;13.10;99.90
33139;DHT22;19501;50.948;5.316;2023-05-10T04:59:15;13.30;99.90
33139;DHT22;19501;50.948;5.316;2023-05-10T05:01:41;13.20;99.90
33139;DHT22;19501;50.948;5.316;2023-05-10T05:04:06;13.30;99.90
33139;DHT22;19501;50.948;5.316;2023-05-10T05:06:32;13.20;99.90
33139;DHT22;19501;50.948;5.316;2023-05-10T05:08:58;13.30;99.90
33139;DHT22;19501;50.948;5.316;2023-05-10T05:11:24;13.10;99.90
33139;DHT22;19501;50.948;5.316;2023-05-10T05:13:50;13.00;99.90
33139;DHT22;19501;50.948;5.316;2023-05-10T05:16:16;13.00;99.90
33139;DHT22;19501;50.948;5.316;2023-05-10T05:18:51;12.90;99.90
33139;DHT22;19501;50.948;5.316;2023-05-10T05:21:23;13.00;99.90
33139;DHT22;19501;50.948;5.316;2023-05-10T05:23:50;13.00;99.90
33139;DHT22;19501;50.948;5.316;2023-05-10T05:26:26;12.90;99.90
33139;DHT22;19501;50.948;5.316;2023-05-10T05:28:52;12.90;99.90
33139;DHT22;19501;50.948;5.316;2023-05-10T05:31:20;12.90;99.90
33139;DHT22;19501;50.948;5.316;2023-05-10T05:33:47;13.10;99.90
33139;DHT22;19501;50.948;5.316;2023-05-10T05:36:13;13.00;99.90
33139;DHT22;19501;50.948;5.316;2023-05-10T05:38:39;13.00;99.90
33139;DHT22;19501;50.948;5.316;2023-05-10T05:41:04;13.10;99.90
33139;DHT22;19501;50.948;5.316;2023-05-10T05:43:30;13.10;99.90
33139;DHT22;19501;50.948;5.316;2023-05-10T05:45:56;13.10;99.90
33139;DHT22;19501;50.948;5.316;2023-05-10T05:48:23;13.10;99.90
33139;DHT22;19501;50.948;5.316;2023-05-10T05:50:49;13.10;99.90
33139;DHT22;19501;50.948;5.316;2023-05-10T05:53:21;13.20;99.90
33139;DHT22;19501;50.948;5.316;2023-05-10T05:55:58;13.20;99.90
33139;DHT22;19501;50.948;5.316;2023-05-10T05:58:25;13.20;99.90
33139;DHT22;19501;50.948;5.316;2023-05-10T06:00:51;13.20;99.90
33139;DHT22;19501;50.948;5.316;2023-05-10T06:03:18;13.30;99.90
33139;DHT22;19501;50.948;5.316;2023-05-10T06:05:44;13.40;99.90
33139;DHT22;19501;50.948;5.316;2023-05-10T06:08:10;13.40;99.90
33139;DHT22;19501;50.948;5.316;2023-05-10T06:10:36;13.50;99.90
33139;DHT22;19501;50.948;5.316;2023-05-10T06:13:02;13.50;99.90
33139;DHT22;19501;50.948;5.316;2023-05-10T06:15:28;13.40;99.90
33139;DHT22;19501;50.948;5.316;2023-05-10T06:17:54;13.50;99.90
33139;DHT22;19501;50.948;5.316;2023-05-10T06:20:20;13.40;99.90
33139;DHT22;19501;50.948;5.316;2023-05-10T06:22:45;13.30;99.90
33139;DHT22;19501;50.948;5.316;2023-05-10T06:25:11;13.40;99.90
33139;DHT22;19501;50.948;5.316;2023-05-10T06:27:37;13.30;99.90
33139;DHT22;19501;50.948;5.316;2023-05-10T06:30:04;13.40;99.90
33139;DHT22;19501;50.948;5.316;2023-05-10T06:32:30;13.30;99.90
33139;DHT22;19501;50.948;5.316;2023-05-10T06:34:56;13.30;99.90
33139;DHT22;19501;50.948;5.316;2023-05-10T06:37:22;13.30;99.90
33139;DHT22;19501;50.948;5.316;2023-05-10T06:39:48;13.40;99.90
33139;DHT22;19501;50.948;5.316;2023-05-10T06:42:14;13.50;99.90
33139;DHT22;19501;50.948;5.316;2023-05-10T06:44:40;13.50;99.90
33139;DHT22;19501;50.948;5.316;2023-05-10T06:47:06;13.50;99.90
33139;DHT22;19501;50.948;5.316;2023-05-10T06:49:32;13.40;99.90
33139;DHT22;19501;50.948;5.316;2023-05-10T06:51:57;13.50;99.90
33139;DHT22;19501;50.948;5.316;2023-05-10T06:54:23;13.40;99.90
33139;DHT22;19501;50.948;5.316;2023-05-10T06:56:49;13.30;99.90
33139;DHT22;19501;50.948;5.316;2023-05-10T06:59:15;13.30;99.90
33139;DHT22;19501;50.948;5.316;2023-05-10T07:01:42;13.20;99.90
33139;DHT22;19501;50.948;5.316;2023-05-10T07:04:08;13.20;99.90
33139;DHT22;19501;50.948;5.316;2023-05-10T07:06:34;13.10;99.90
33139;DHT22;19501;50.948;5.316;2023-05-10T07:09:01;13.30;99.90
33139;DHT22;19501;50.948;5.316;2023-05-10T07:11:27;13.40;99.90
33139;DHT22;19501;50.948;5.316;2023-05-10T07:13:55;13.60;99.90
33139;DHT22;19501;50.948;5.316;2023-05-10T07:16:21;13.30;99.90
33139;DHT22;19501;50.948;5.316;2023-05-10T07:18:50;13.10;99.90
33139;DHT22;19501;50.948;5.316;2023-05-10T07:21:19;13.20;99.90
33139;DHT22;19501;50.948;5.316;2023-05-10T07:23:46;13.30;99.90
33139;DHT22;19501;50.948;5.316;2023-05-10T07:26:12;13.10;99.90
33139;DHT22;19501;50.948;5.316;2023-05-10T07:28:38;13.10;99.90
33139;DHT22;19501;50.948;5.316;2023-05-10T07:31:04;13.00;99.90
33139;DHT22;19501;50.948;5.316;2023-05-10T07:33:30;13.20;99.90
33139;DHT22;19501;50.948;5.316;2023-05-10T07:35:55;13.30;99.90
33139;DHT22;19501;50.948;5.316;2023-05-10T07:38:21;13.50;99.90
33139;DHT22;19501;50.948;5.316;2023-05-10T07:40:47;13.50;99.90
33139;DHT22;19501;50.948;5.316;2023-05-10T07:43:12;13.50;99.90
33139;DHT22;19501;50.948;5.316;2023-05-10T07:45:38;13.50;99.90
33139;DHT22;19501;50.948;5.316;2023-05-10T07:48:03;13.40;99.90
33139;DHT22;19501;50.948;5.316;2023-05-10T07:50:29;13.40;99.90
33139;DHT22;19501;50.948;5.316;2023-05-10T07:52:55;13.40;99.90
33139;DHT22;19501;50.948;5.316;2023-05-10T07:55:20;13.60;99.90
33139;DHT22;19501;50.948;5.316;2023-05-10T07:57:49;13.60;99.90
33139;DHT22;19501;50.948;5.316;2023-05-10T08:00:18;13.70;99.90
33139;DHT22;19501;50.948;5.316;2023-05-10T08:02:44;13.70;99.90
33139;DHT22;19501;50.948;5.316;2023-05-10T08:05:10;13.60;99.90
33139;DHT22;19501;50.948;5.316;2023-05-10T08:07:36;13.40;99.90
33139;DHT22;19501;50.948;5.316;2023-05-10T08:10:02;13.50;99.90
33139;DHT22;19501;50.948;5.316;2023-05-10T08:12:28;13.60;99.90
33139;DHT22;19501;50.948;5.316;2023-05-10T08:14:54;13.60;99.90
33139;DHT22;19501;50.948;5.316;2023-05-10T08:17:19;13.60;99.90
33139;DHT22;19501;50.948;5.316;2023-05-10T08:19:45;13.60;99.90
33139;DHT22;19501;50.948;5.316;2023-05-10T08:22:10;13.30;99.90
33139;DHT22;19501;50.948;5.316;2023-05-10T08:24:38;13.00;99.90
33139;DHT22;19501;50.948;5.316;2023-05-10T08:27:07;13.00;99.90
33139;DHT22;19501;50.948;5.316;2023-05-10T08:29:33;12.90;99.90
33139;DHT22;19501;50.948;5.316;2023-05-10T08:32:00;12.60;99.90
33139;DHT22;19501;50.948;5.316;2023-05-10T08:34:26;12.50;99.90
33139;DHT22;19501;50.948;5.316;2023-05-10T08:36:52;12.40;99.90
33139;DHT22;19501;50.948;5.316;2023-05-10T08:39:18;12.50;99.90
33139;DHT22;19501;50.948;5.316;2023-05-10T08:41:44;12.60;99.90
33139;DHT22;19501;50.948;5.316;2023-05-10T08:44:10;12.60;99.90
33139;DHT22;19501;50.948;5.316;2023-05-10T08:46:37;12.60;99.90
33139;DHT22;19501;50.948;5.316;2023-05-10T08:49:06;12.50;99.90
33139;DHT22;19501;50.948;5.316;2023-05-10T08:51:36;12.60;99.90
33139;DHT22;19501;50.948;5.316;2023-05-10T08:54:06;12.60;99.90
33139;DHT22;19501;50.948;5.316;2023-05-10T08:56:32;12.50;99.90
33139;DHT22;19501;50.948;5.316;2023-05-10T08:58:58;12.60;99.90
33139;DHT22;19501;50.948;5.316;2023-05-10T09:01:24;12.60;99.90
33139;DHT22;19501;50.948;5.316;2023-05-10T09:03:50;12.60;99.90
33139;DHT22;19501;50.948;5.316;2023-05-10T09:06:16;12.50;99.90
33139;DHT22;19501;50.948;5.316;2023-05-10T09:08:42;12.50;99.90
33139;DHT22;19501;50.948;5.316;2023-05-10T09:11:09;12.60;99.90
33139;DHT22;19501;50.948;5.316;2023-05-10T09:13:35;12.70;99.90
33139;DHT22;19501;50.948;5.316;2023-05-10T09:16:02;12.90;99.90
33139;DHT22;19501;50.948;5.316;2023-05-10T09:18:31;13.00;99.90
33139;DHT22;19501;50.948;5.316;2023-05-10T09:20:56;13.00;99.90
33139;DHT22;19501;50.948;5.316;2023-05-10T09:23:22;13.10;99.90
33139;DHT22;19501;50.948;5.316;2023-05-10T09:26:02;13.00;99.90
33139;DHT22;19501;50.948;5.316;2023-05-10T09:28:32;13.10;99.90
33139;DHT22;19501;50.948;5.316;2023-05-10T09:30:58;13.10;99.90
33139;DHT22;19501;50.948;5.316;2023-05-10T09:33:24;13.20;99.90
33139;DHT22;19501;50.948;5.316;2023-05-10T09:35:51;13.30;99.90
33139;DHT22;19501;50.948;5.316;2023-05-10T09:38:17;13.40;99.90
33139;DHT22;19501;50.948;5.316;2023-05-10T09:40:53;13.50;99.90
33139;DHT22;19501;50.948;5.316;2023-05-10T09:43:20;13.40;99.90
33139;DHT22;19501;50.948;5.316;2023-05-10T09:45:48;13.20;99.90
33139;DHT22;19501;50.948;5.316;2023-05-10T09:48:14;13.30;99.90
33139;DHT22;19501;50.948;5.316;2023-05-10T09:50:39;13.30;99.90
33139;DHT22;19501;50.948;5.316;2023-05-10T09:53:05;13.40;99.90
33139;DHT22;19501;50.948;5.316;2023-05-10T09:55:45;13.50;99.90
33139;DHT22;19501;50.948;5.316;2023-05-10T09:58:13;13.60;99.90
33139;DHT22;19501;50.948;5.316;2023-05-10T10:00:43;13.80;99.90
33139;DHT22;19501;50.948;5.316;2023-05-10T10:03:18;14.10;99.90
33139;DHT22;19501;50.948;5.316;2023-05-10T10:05:44;14.30;99.90
33139;DHT22;19501;50.948;5.316;2023-05-10T10:08:11;14.10;99.90
33139;DHT22;19501;50.948;5.316;2023-05-10T10:10:42;14.00;99.90
33139;DHT22;19501;50.948;5.316;2023-05-10T10:13:09;14.00;99.90
33139;DHT22;19501;50.948;5.316;2023-05-10T10:15:35;14.10;99.90
33139;DHT22;19501;50.948;5.316;2023-05-10T10:18:02;14.10;99.90
33139;DHT22;19501;50.948;5.316;2023-05-10T10:20:29;14.00;99.90
33139;DHT22;19501;50.948;5.316;2023-05-10T10:22:55;14.00;99.90
33139;DHT22;19501;50.948;5.316;2023-05-10T10:25:21;14.00;99.90
33139;DHT22;19501;50.948;5.316;2023-05-10T10:30:42;14.00;99.90
33139;DHT22;19501;50.948;5.316;2023-05-10T10:36:02;13.90;99.90
33139;DHT22;19501;50.948;5.316;2023-05-10T10:38:55;14.00;99.90
33139;DHT22;19501;50.948;5.316;2023-05-10T10:41:35;14.00;99.90
33139;DHT22;19501;50.948;5.316;2023-05-10T10:44:33;14.10;99.90
33139;DHT22;19501;50.948;5.316;2023-05-10T10:57:29;14.10;99.90
33139;DHT22;19501;50.948;5.316;2023-05-10T11:00:29;14.10;99.90
33139;DHT22;19501;50.948;5.316;2023-05-10T11:10:51;14.30;99.90
33139;DHT22;19501;50.948;5.316;2023-05-10T11:13:27;14.40;99.90
33139;DHT22;19501;50.948;5.316;2023-05-10T11:15:54;14.20;99.90
33139;DHT22;19501;50.948;5.316;2023-05-10T11:18:29;14.30;99.90
33139;DHT22;19501;50.948;5.316;2023-05-10T11:21:00;14.30;99.90
33139;DHT22;19501;50.948;5.316;2023-05-10T11:23:32;14.40;99.90
33139;DHT22;19501;50.948;5.316;2023-05-10T11:26:00;14.50;99.90
33139;DHT22;19501;50.948;5.316;2023-05-10T11:28:27;14.60;99.90
33139;DHT22;19501;50.948;5.316;2023-05-10T11:30:54;14.80;99.90
33139;DHT22;19501;50.948;5.316;2023-05-10T11:33:20;14.90;99.90
33139;DHT22;19501;50.948;5.316;2023-05-10T11:35:46;14.80;99.90
33139;DHT22;19501;50.948;5.316;2023-05-10T11:38:12;14.80;99.90
33139;DHT22;19501;50.948;5.316;2023-05-10T11:40:41;15.00;99.90
33139;DHT22;19501;50.948;5.316;2023-05-10T11:43:08;15.00;99.90
33139;DHT22;19501;50.948;5.316;2023-05-10T11:45:35;14.60;99.90
33139;DHT22;19501;50.948;5.316;2023-05-10T11:48:01;14.60;99.90
33139;DHT22;19501;50.948;5.316;2023-05-10T11:50:28;14.60;99.90
33139;DHT22;19501;50.948;5.316;2023-05-10T11:52:55;14.80;99.90
33139;DHT22;19501;50.948;5.316;2023-05-10T11:55:22;15.00;99.90
33139;DHT22;19501;50.948;5.316;2023-05-10T11:57:52;15.00;99.90
33139;DHT22;19501;50.948;5.316;2023-05-10T12:00:17;15.10;99.90
33139;DHT22;19501;50.948;5.316;2023-05-10T12:02:46;15.20;99.90
33139;DHT22;19501;50.948;5.316;2023-05-10T12:05:12;15.10;99.90
33139;DHT22;19501;50.948;5.316;2023-05-10T12:07:38;15.10;99.90
33139;DHT22;19501;50.948;5.316;2023-05-10T12:12:42;15.20;99.90
33139;DHT22;19501;50.948;5.316;2023-05-10T12:15:22;15.30;99.90
33139;DHT22;19501;50.948;5.316;2023-05-10T12:17:49;15.60;99.90
33139;DHT22;19501;50.948;5.316;2023-05-10T12:20:23;15.70;99.90
33139;DHT22;19501;50.948;5.316;2023-05-10T12:22:53;15.70;99.90
33139;DHT22;19501;50.948;5.316;2023-05-10T12:25:21;15.40;99.90
33139;DHT22;19501;50.948;5.316;2023-05-10T12:27:52;15.50;99.90
33139;DHT22;19501;50.948;5.316;2023-05-10T12:30:26;15.60;99.90
33139;DHT22;19501;50.948;5.316;2023-05-10T12:32:52;15.90;99.90
33139;DHT22;19501;50.948;5.316;2023-05-10T12:35:23;16.10;99.90
33139;DHT22;19501;50.948;5.316;2023-05-10T12:37:50;15.90;99.90
33139;DHT22;19501;50.948;5.316;2023-05-10T12:40:16;15.40;99.90
33139;DHT22;19501;50.948;5.316;2023-05-10T12:42:42;15.10;99.90
33139;DHT22;19501;50.948;5.316;2023-05-10T12:45:10;15.00;99.90
33139;DHT22;19501;50.948;5.316;2023-05-10T12:47:36;15.20;99.90
33139;DHT22;19501;50.948;5.316;2023-05-10T12:50:03;15.40;99.90
33139;DHT22;19501;50.948;5.316;2023-05-10T12:52:30;15.40;99.90
33139;DHT22;19501;50.948;5.316;2023-05-10T12:54:57;15.00;99.90
33139;DHT22;19501;50.948;5.316;2023-05-10T12:57:24;14.80;99.90
33139;DHT22;19501;50.948;5.316;2023-05-10T12:59:52;15.00;99.90
33139;DHT22;19501;50.948;5.316;2023-05-10T13:02:18;14.80;99.90
33139;DHT22;19501;50.948;5.316;2023-05-10T13:04:46;14.50;99.90
33139;DHT22;19501;50.948;5.316;2023-05-10T13:07:12;14.50;99.90
33139;DHT22;19501;50.948;5.316;2023-05-10T13:09:38;14.90;99.90
33139;DHT22;19501;50.948;5.316;2023-05-10T13:12:03;15.00;99.90
33139;DHT22;19501;50.948;5.316;2023-05-10T13:14:29;15.30;99.90
33139;DHT22;19501;50.948;5.316;2023-05-10T13:16:55;15.50;99.90
33139;DHT22;19501;50.948;5.316;2023-05-10T13:19:21;15.80;99.90
33139;DHT22;19501;50.948;5.316;2023-05-10T13:21:47;16.10;99.90
33139;DHT22;19501;50.948;5.316;2023-05-10T13:24:15;16.40;99.90
33139;DHT22;19501;50.948;5.316;2023-05-10T13:26:43;16.40;99.90
33139;DHT22;19501;50.948;5.316;2023-05-10T13:29:09;16.70;99.90
33139;DHT22;19501;50.948;5.316;2023-05-10T13:31:35;16.90;99.90
33139;DHT22;19501;50.948;5.316;2023-05-10T13:34:01;16.80;99.90
33139;DHT22;19501;50.948;5.316;2023-05-10T13:36:27;16.60;99.90
33139;DHT22;19501;50.948;5.316;2023-05-10T13:38:53;16.90;99.90
33139;DHT22;19501;50.948;5.316;2023-05-10T13:41:19;17.30;99.90
33139;DHT22;19501;50.948;5.316;2023-05-10T13:43:44;17.60;99.90
33139;DHT22;19501;50.948;5.316;2023-05-10T13:46:10;17.70;99.90
33139;DHT22;19501;50.948;5.316;2023-05-10T13:48:36;18.00;99.90
33139;DHT22;19501;50.948;5.316;2023-05-10T13:51:02;17.80;99.90
33139;DHT22;19501;50.948;5.316;2023-05-10T13:53:28;19.20;99.90
33139;DHT22;19501;50.948;5.316;2023-05-10T13:55:56;19.80;99.90
33139;DHT22;19501;50.948;5.316;2023-05-10T13:58:25;18.50;99.90
33139;DHT22;19501;50.948;5.316;2023-05-10T14:00:50;17.10;99.90
33139;DHT22;19501;50.948;5.316;2023-05-10T14:03:16;16.70;99.90
33139;DHT22;19501;50.948;5.316;2023-05-10T14:05:42;16.80;99.90
33139;DHT22;19501;50.948;5.316;2023-05-10T14:08:07;17.40;99.90
33139;DHT22;19501;50.948;5.316;2023-05-10T14:10:34;17.60;99.90
33139;DHT22;19501;50.948;5.316;2023-05-10T14:13:00;17.20;99.90
33139;DHT22;19501;50.948;5.316;2023-05-10T14:15:26;17.00;99.90
33139;DHT22;19501;50.948;5.316;2023-05-10T14:17:52;17.00;99.90
33139;DHT22;19501;50.948;5.316;2023-05-10T14:20:17;16.70;99.90
33139;DHT22;19501;50.948;5.316;2023-05-10T14:22:43;16.60;99.90
33139;DHT22;19501;50.948;5.316;2023-05-10T14:25:09;16.60;99.90
33139;DHT22;19501;50.948;5.316;2023-05-10T14:27:34;16.30;99.90
33139;DHT22;19501;50.948;5.316;2023-05-10T14:30:00;16.20;99.90
33139;DHT22;19501;50.948;5.316;2023-05-10T14:32:26;16.20;99.90
33139;DHT22;19501;50.948;5.316;2023-05-10T14:34:52;16.10;99.90
33139;DHT22;19501;50.948;5.316;2023-05-10T14:37:18;16.30;99.90
33139;DHT22;19501;50.948;5.316;2023-05-10T14:39:44;16.30;99.90
33139;DHT22;19501;50.948;5.316;2023-05-10T14:42:09;16.30;99.90
33139;DHT22;19501;50.948;5.316;2023-05-10T14:44:35;16.30;99.90
33139;DHT22;19501;50.948;5.316;2023-05-10T14:47:00;16.70;99.90
33139;DHT22;19501;50.948;5.316;2023-05-10T14:49:26;17.30;99.90
33139;DHT22;19501;50.948;5.316;2023-05-10T14:51:52;17.90;99.90
33139;DHT22;19501;50.948;5.316;2023-05-10T14:54:18;18.60;99.90
33139;DHT22;19501;50.948;5.316;2023-05-10T14:56:44;18.80;99.90
33139;DHT22;19501;50.948;5.316;2023-05-10T14:59:10;18.80;99.90
33139;DHT22;19501;50.948;5.316;2023-05-10T15:01:35;18.70;99.90
33139;DHT22;19501;50.948;5.316;2023-05-10T15:04:03;18.60;99.90
33139;DHT22;19501;50.948;5.316;2023-05-10T15:06:33;18.30;99.90
33139;DHT22;19501;50.948;5.316;2023-05-10T15:09:00;18.40;99.90
33139;DHT22;19501;50.948;5.316;2023-05-10T15:11:29;17.90;99.90
33139;DHT22;19501;50.948;5.316;2023-05-10T15:13:57;17.70;99.90
33139;DHT22;19501;50.948;5.316;2023-05-10T15:16:23;17.60;99.90
33139;DHT22;19501;50.948;5.316;2023-05-10T15:18:48;17.20;99.90
33139;DHT22;19501;50.948;5.316;2023-05-10T15:21:14;17.40;99.90
33139;DHT22;19501;50.948;5.316;2023-05-10T15:23:40;17.90;99.90
33139;DHT22;19501;50.948;5.316;2023-05-10T15:26:06;17.80;99.90
33139;DHT22;19501;50.948;5.316;2023-05-10T15:28:31;17.60;99.90
33139;DHT22;19501;50.948;5.316;2023-05-10T15:30:57;17.70;99.90
33139;DHT22;19501;50.948;5.316;2023-05-10T15:33:23;17.20;99.90
33139;DHT22;19501;50.948;5.316;2023-05-10T15:35:48;17.50;99.90
33139;DHT22;19501;50.948;5.316;2023-05-10T15:38:14;17.80;99.90
33139;DHT22;19501;50.948;5.316;2023-05-10T15:40:40;17.60;99.90
33139;DHT22;19501;50.948;5.316;2023-05-10T15:43:05;17.40;99.90
33139;DHT22;19501;50.948;5.316;2023-05-10T15:45:31;17.50;99.90
33139;DHT22;19501;50.948;5.316;2023-05-10T15:47:58;17.50;99.90
33139;DHT22;19501;50.948;5.316;2023-05-10T15:50:24;17.90;99.90
33139;DHT22;19501;50.948;5.316;2023-05-10T15:52:50;18.00;99.90
33139;DHT22;19501;50.948;5.316;2023-05-10T15:55:16;18.10;99.90
33139;DHT22;19501;50.948;5.316;2023-05-10T15:57:43;18.10;99.90
33139;DHT22;19501;50.948;5.316;2023-05-10T16:00:10;18.30;99.90
33139;DHT22;19501;50.948;5.316;2023-05-10T16:02:36;18.30;99.90
33139;DHT22;19501;50.948;5.316;2023-05-10T16:05:02;18.50;99.90
33139;DHT22;19501;50.948;5.316;2023-05-10T16:07:28;18.60;99.90
33139;DHT22;19501;50.948;5.316;2023-05-10T16:09:54;18.60;99.90
33139;DHT22;19501;50.948;5.316;2023-05-10T16:12:20;18.30;99.90
33139;DHT22;19501;50.948;5.316;2023-05-10T16:14:45;17.90;99.90